Centennial, Colorado
Current Conditions -  °F | °C
As of 6:58 PM on Friday 24 Oct 2014 (Local Time) from KBKF Reporting Station
Clear Clear  
Wind Chill: 64°   Ceiling: Unl
Heat Index: 64°   Visibility: 10mi
Dew Point: 27°   Wind: 8mph
Humidity: 25%   Direction: 110°ESE
Pressure: 30.2"   Gusts: NA
Location:  39.6608°N, 104.835°W
Report Text: KBKF 250058Z 11007KT 10SM CLR 18/M03 A3020 RMK AO2A SLP171 T01781028
Loading
Personal Weather Stations






























Interactive Weather Map
Tropical Storm Tracking
New forecast layout! Learn more

10-Day Weather Forecast

Advertisements
Track Severe Weather on mobile